Terminal Aerodrome Forecast
Issued by NWS Twin Cities, MN

Home | Current Version | Previous Version | Graphics & Text | Print | Product List | Glossary On
Versions: 1 2 3 4 5 6 7 8 9 10 11 12 13 14 15 16 17 18 19 20
000
FTUS43 KMPX 290850 AAB
TAFEAU
TAF AMD
KEAU 290850Z 2909/3006 21006KT P6SM -SHRA SCT020 OVC045
      TEMPO 2909/2910 4SM SHRA BKN020
     FM291100 26004KT 6SM BR OVC015
     FM291500 28009G15KT P6SM VCSH BKN025 OVC050
     FM292100 27008KT P6SM SCT050 BKN200=

USA.gov is the U.S. government's official web portal to all federal, state and local government web resources and services.